sensor_id;sensor_type;location;lat;lon;timestamp;temperature;humidity
58554;DHT22;48119;53.218;6.576;2024-01-06T00:00:39;6.60;99.90
58554;DHT22;48119;53.218;6.576;2024-01-06T00:03:05;6.60;99.90
58554;DHT22;48119;53.218;6.576;2024-01-06T00:05:30;6.50;99.90
58554;DHT22;48119;53.218;6.576;2024-01-06T00:07:56;6.40;99.90
58554;DHT22;48119;53.218;6.576;2024-01-06T00:10:22;6.40;99.90
58554;DHT22;48119;53.218;6.576;2024-01-06T00:12:48;6.30;99.90
58554;DHT22;48119;53.218;6.576;2024-01-06T00:15:14;6.40;99.90
58554;DHT22;48119;53.218;6.576;2024-01-06T00:17:40;6.40;99.90
58554;DHT22;48119;53.218;6.576;2024-01-06T00:20:06;6.50;99.90
58554;DHT22;48119;53.218;6.576;2024-01-06T00:22:32;6.40;99.90
58554;DHT22;48119;53.218;6.576;2024-01-06T00:24:58;6.30;99.90
58554;DHT22;48119;53.218;6.576;2024-01-06T00:27:23;6.30;99.90
58554;DHT22;48119;53.218;6.576;2024-01-06T00:29:49;6.30;99.90
58554;DHT22;48119;53.218;6.576;2024-01-06T00:32:15;6.30;99.90
58554;DHT22;48119;53.218;6.576;2024-01-06T00:34:40;6.30;99.90
58554;DHT22;48119;53.218;6.576;2024-01-06T00:37:06;6.30;99.90
58554;DHT22;48119;53.218;6.576;2024-01-06T00:39:32;6.30;99.90
58554;DHT22;48119;53.218;6.576;2024-01-06T00:41:58;6.40;99.90
58554;DHT22;48119;53.218;6.576;2024-01-06T00:44:23;6.30;99.90
58554;DHT22;48119;53.218;6.576;2024-01-06T00:46:49;6.40;99.90
58554;DHT22;48119;53.218;6.576;2024-01-06T00:49:15;6.40;99.90
58554;DHT22;48119;53.218;6.576;2024-01-06T00:51:41;6.50;99.90
58554;DHT22;48119;53.218;6.576;2024-01-06T00:54:06;6.50;99.90
58554;DHT22;48119;53.218;6.576;2024-01-06T00:56:32;6.50;99.90
58554;DHT22;48119;53.218;6.576;2024-01-06T00:58:58;6.40;99.90
58554;DHT22;48119;53.218;6.576;2024-01-06T01:01:23;6.40;99.90
58554;DHT22;48119;53.218;6.576;2024-01-06T01:03:49;6.40;99.90
58554;DHT22;48119;53.218;6.576;2024-01-06T01:06:15;6.40;99.90
58554;DHT22;48119;53.218;6.576;2024-01-06T01:08:41;6.40;99.90
58554;DHT22;48119;53.218;6.576;2024-01-06T01:11:06;6.40;99.90
58554;DHT22;48119;53.218;6.576;2024-01-06T01:13:32;6.40;99.90
58554;DHT22;48119;53.218;6.576;2024-01-06T01:15:58;6.40;99.90
58554;DHT22;48119;53.218;6.576;2024-01-06T01:18:24;6.40;99.90
58554;DHT22;48119;53.218;6.576;2024-01-06T01:20:49;6.30;99.90
58554;DHT22;48119;53.218;6.576;2024-01-06T01:23:15;6.30;99.90
58554;DHT22;48119;53.218;6.576;2024-01-06T01:25:41;6.30;99.90
58554;DHT22;48119;53.218;6.576;2024-01-06T01:28:06;6.30;99.90
58554;DHT22;48119;53.218;6.576;2024-01-06T01:30:32;6.30;99.90
58554;DHT22;48119;53.218;6.576;2024-01-06T01:32:58;6.30;99.90
58554;DHT22;48119;53.218;6.576;2024-01-06T01:35:24;6.20;99.90
58554;DHT22;48119;53.218;6.576;2024-01-06T01:37:50;6.30;99.90
58554;DHT22;48119;53.218;6.576;2024-01-06T01:40:15;6.30;99.90
58554;DHT22;48119;53.218;6.576;2024-01-06T01:42:43;6.30;99.90
58554;DHT22;48119;53.218;6.576;2024-01-06T01:45:09;6.30;99.90
58554;DHT22;48119;53.218;6.576;2024-01-06T01:47:36;6.30;99.90
58554;DHT22;48119;53.218;6.576;2024-01-06T01:50:03;6.30;99.90
58554;DHT22;48119;53.218;6.576;2024-01-06T01:52:29;6.30;99.90
58554;DHT22;48119;53.218;6.576;2024-01-06T01:54:55;6.30;99.90
58554;DHT22;48119;53.218;6.576;2024-01-06T01:57:23;6.30;99.90
58554;DHT22;48119;53.218;6.576;2024-01-06T01:59:50;6.30;99.90
58554;DHT22;48119;53.218;6.576;2024-01-06T02:02:16;6.30;99.90
58554;DHT22;48119;53.218;6.576;2024-01-06T02:04:45;6.20;99.90
58554;DHT22;48119;53.218;6.576;2024-01-06T02:07:11;6.20;99.90
58554;DHT22;48119;53.218;6.576;2024-01-06T02:09:36;6.20;99.90
58554;DHT22;48119;53.218;6.576;2024-01-06T02:12:03;6.10;99.90
58554;DHT22;48119;53.218;6.576;2024-01-06T02:14:28;6.10;99.90
58554;DHT22;48119;53.218;6.576;2024-01-06T02:16:54;6.10;99.90
58554;DHT22;48119;53.218;6.576;2024-01-06T02:19:20;6.10;99.90
58554;DHT22;48119;53.218;6.576;2024-01-06T02:21:53;6.10;99.90
58554;DHT22;48119;53.218;6.576;2024-01-06T02:24:19;6.00;99.90
58554;DHT22;48119;53.218;6.576;2024-01-06T02:26:45;6.00;99.90
58554;DHT22;48119;53.218;6.576;2024-01-06T02:29:11;6.00;99.90
58554;DHT22;48119;53.218;6.576;2024-01-06T02:31:37;6.00;99.90
58554;DHT22;48119;53.218;6.576;2024-01-06T02:34:02;6.10;99.90
58554;DHT22;48119;53.218;6.576;2024-01-06T02:36:28;6.10;99.90
58554;DHT22;48119;53.218;6.576;2024-01-06T02:38:54;6.10;99.90
58554;DHT22;48119;53.218;6.576;2024-01-06T02:41:19;6.10;99.90
58554;DHT22;48119;53.218;6.576;2024-01-06T02:43:46;6.10;99.90
58554;DHT22;48119;53.218;6.576;2024-01-06T02:46:12;6.10;99.90
58554;DHT22;48119;53.218;6.576;2024-01-06T02:48:37;6.10;99.90
58554;DHT22;48119;53.218;6.576;2024-01-06T02:51:03;6.10;99.90
58554;DHT22;48119;53.218;6.576;2024-01-06T02:53:29;6.10;99.90
58554;DHT22;48119;53.218;6.576;2024-01-06T02:55:55;6.10;99.90
58554;DHT22;48119;53.218;6.576;2024-01-06T02:58:20;6.00;99.90
58554;DHT22;48119;53.218;6.576;2024-01-06T03:00:46;6.00;99.90
58554;DHT22;48119;53.218;6.576;2024-01-06T03:03:12;6.10;99.90
58554;DHT22;48119;53.218;6.576;2024-01-06T03:05:38;6.10;99.90
58554;DHT22;48119;53.218;6.576;2024-01-06T03:08:04;6.00;99.90
58554;DHT22;48119;53.218;6.576;2024-01-06T03:10:30;6.00;99.90
58554;DHT22;48119;53.218;6.576;2024-01-06T03:12:55;6.00;99.90
58554;DHT22;48119;53.218;6.576;2024-01-06T03:15:22;5.90;99.90
58554;DHT22;48119;53.218;6.576;2024-01-06T03:17:47;6.00;99.90
58554;DHT22;48119;53.218;6.576;2024-01-06T03:20:13;6.00;99.90
58554;DHT22;48119;53.218;6.576;2024-01-06T03:22:39;5.90;99.90
58554;DHT22;48119;53.218;6.576;2024-01-06T03:25:05;5.90;99.90
58554;DHT22;48119;53.218;6.576;2024-01-06T03:27:32;5.80;99.90
58554;DHT22;48119;53.218;6.576;2024-01-06T03:29:57;5.80;99.90
58554;DHT22;48119;53.218;6.576;2024-01-06T03:32:23;5.80;99.90
58554;DHT22;48119;53.218;6.576;2024-01-06T03:34:50;5.80;99.90
58554;DHT22;48119;53.218;6.576;2024-01-06T03:37:15;5.80;99.90
58554;DHT22;48119;53.218;6.576;2024-01-06T03:39:41;5.80;99.90
58554;DHT22;48119;53.218;6.576;2024-01-06T03:42:07;5.90;99.90
58554;DHT22;48119;53.218;6.576;2024-01-06T03:44:33;5.90;99.90
58554;DHT22;48119;53.218;6.576;2024-01-06T03:46:59;5.80;99.90
58554;DHT22;48119;53.218;6.576;2024-01-06T03:49:25;5.80;99.90
58554;DHT22;48119;53.218;6.576;2024-01-06T03:51:51;5.80;99.90
58554;DHT22;48119;53.218;6.576;2024-01-06T03:54:17;5.80;99.90
58554;DHT22;48119;53.218;6.576;2024-01-06T03:56:43;5.80;99.90
58554;DHT22;48119;53.218;6.576;2024-01-06T03:59:09;5.80;99.90
58554;DHT22;48119;53.218;6.576;2024-01-06T04:01:34;5.80;99.90
58554;DHT22;48119;53.218;6.576;2024-01-06T04:04:05;5.80;99.90
58554;DHT22;48119;53.218;6.576;2024-01-06T04:06:31;5.90;99.90
58554;DHT22;48119;53.218;6.576;2024-01-06T04:09:00;5.80;99.90
58554;DHT22;48119;53.218;6.576;2024-01-06T04:11:26;5.80;99.90
58554;DHT22;48119;53.218;6.576;2024-01-06T04:13:52;5.80;99.90
58554;DHT22;48119;53.218;6.576;2024-01-06T04:16:18;5.80;99.90
58554;DHT22;48119;53.218;6.576;2024-01-06T04:18:44;5.80;99.90
58554;DHT22;48119;53.218;6.576;2024-01-06T04:21:10;5.80;99.90
58554;DHT22;48119;53.218;6.576;2024-01-06T04:23:36;5.80;99.90
58554;DHT22;48119;53.218;6.576;2024-01-06T04:26:02;5.80;99.90
58554;DHT22;48119;53.218;6.576;2024-01-06T04:28:30;5.80;99.90
58554;DHT22;48119;53.218;6.576;2024-01-06T04:30:56;5.80;99.90
58554;DHT22;48119;53.218;6.576;2024-01-06T04:33:21;5.70;99.90
58554;DHT22;48119;53.218;6.576;2024-01-06T04:35:47;5.80;99.90
58554;DHT22;48119;53.218;6.576;2024-01-06T04:38:13;5.70;99.90
58554;DHT22;48119;53.218;6.576;2024-01-06T04:40:39;5.70;99.90
58554;DHT22;48119;53.218;6.576;2024-01-06T04:43:04;5.70;99.90
58554;DHT22;48119;53.218;6.576;2024-01-06T04:45:30;5.80;99.90
58554;DHT22;48119;53.218;6.576;2024-01-06T04:47:56;5.70;99.90
58554;DHT22;48119;53.218;6.576;2024-01-06T04:50:21;5.70;99.90
58554;DHT22;48119;53.218;6.576;2024-01-06T04:52:50;5.70;99.90
58554;DHT22;48119;53.218;6.576;2024-01-06T04:55:16;5.70;99.90
58554;DHT22;48119;53.218;6.576;2024-01-06T04:57:42;5.70;99.90
58554;DHT22;48119;53.218;6.576;2024-01-06T05:00:08;5.70;99.90
58554;DHT22;48119;53.218;6.576;2024-01-06T05:02:34;5.70;99.90
58554;DHT22;48119;53.218;6.576;2024-01-06T05:05:00;5.70;99.90
58554;DHT22;48119;53.218;6.576;2024-01-06T05:07:25;5.70;99.90
58554;DHT22;48119;53.218;6.576;2024-01-06T05:09:51;5.70;99.90
58554;DHT22;48119;53.218;6.576;2024-01-06T05:12:17;5.70;99.90
58554;DHT22;48119;53.218;6.576;2024-01-06T05:14:43;5.80;99.90
58554;DHT22;48119;53.218;6.576;2024-01-06T05:17:08;5.80;99.90
58554;DHT22;48119;53.218;6.576;2024-01-06T05:19:34;5.80;99.90
58554;DHT22;48119;53.218;6.576;2024-01-06T05:22:00;5.70;99.90
58554;DHT22;48119;53.218;6.576;2024-01-06T05:24:26;5.70;99.90
58554;DHT22;48119;53.218;6.576;2024-01-06T05:26:52;5.80;99.90
58554;DHT22;48119;53.218;6.576;2024-01-06T05:29:18;5.70;99.90
58554;DHT22;48119;53.218;6.576;2024-01-06T05:31:43;5.70;99.90
58554;DHT22;48119;53.218;6.576;2024-01-06T05:34:11;5.70;99.90
58554;DHT22;48119;53.218;6.576;2024-01-06T05:36:37;5.70;99.90
58554;DHT22;48119;53.218;6.576;2024-01-06T05:39:02;5.80;99.90
58554;DHT22;48119;53.218;6.576;2024-01-06T05:41:28;5.80;99.90
58554;DHT22;48119;53.218;6.576;2024-01-06T05:43:54;5.80;99.90
58554;DHT22;48119;53.218;6.576;2024-01-06T05:46:29;5.80;99.90
58554;DHT22;48119;53.218;6.576;2024-01-06T05:48:55;5.90;99.90
58554;DHT22;48119;53.218;6.576;2024-01-06T05:51:22;5.90;99.90
58554;DHT22;48119;53.218;6.576;2024-01-06T05:53:48;5.90;99.90
58554;DHT22;48119;53.218;6.576;2024-01-06T05:56:23;5.90;99.90
58554;DHT22;48119;53.218;6.576;2024-01-06T05:58:50;5.90;99.90
58554;DHT22;48119;53.218;6.576;2024-01-06T06:01:16;5.80;99.90
58554;DHT22;48119;53.218;6.576;2024-01-06T06:03:42;5.80;99.90
58554;DHT22;48119;53.218;6.576;2024-01-06T06:06:08;5.80;99.90
58554;DHT22;48119;53.218;6.576;2024-01-06T06:08:34;5.90;99.90
58554;DHT22;48119;53.218;6.576;2024-01-06T06:11:00;5.90;99.90
58554;DHT22;48119;53.218;6.576;2024-01-06T06:13:40;5.90;99.90
58554;DHT22;48119;53.218;6.576;2024-01-06T06:16:07;5.80;99.90
58554;DHT22;48119;53.218;6.576;2024-01-06T06:18:33;5.90;99.90
58554;DHT22;48119;53.218;6.576;2024-01-06T06:20:59;5.80;99.90
58554;DHT22;48119;53.218;6.576;2024-01-06T06:23:26;5.80;99.90
58554;DHT22;48119;53.218;6.576;2024-01-06T06:25:52;5.80;99.90
58554;DHT22;48119;53.218;6.576;2024-01-06T06:28:18;5.90;99.90
58554;DHT22;48119;53.218;6.576;2024-01-06T06:30:44;5.90;99.90
58554;DHT22;48119;53.218;6.576;2024-01-06T06:33:09;5.80;99.90
58554;DHT22;48119;53.218;6.576;2024-01-06T06:35:35;5.90;99.90
58554;DHT22;48119;53.218;6.576;2024-01-06T06:38:01;5.90;99.90
58554;DHT22;48119;53.218;6.576;2024-01-06T06:40:27;5.80;99.90
58554;DHT22;48119;53.218;6.576;2024-01-06T06:42:52;5.90;99.90
58554;DHT22;48119;53.218;6.576;2024-01-06T06:45:18;5.90;99.90
58554;DHT22;48119;53.218;6.576;2024-01-06T06:47:50;5.90;99.90
58554;DHT22;48119;53.218;6.576;2024-01-06T06:50:17;5.90;99.90
58554;DHT22;48119;53.218;6.576;2024-01-06T06:52:42;5.90;99.90
58554;DHT22;48119;53.218;6.576;2024-01-06T06:55:11;6.00;99.90
58554;DHT22;48119;53.218;6.576;2024-01-06T06:57:37;6.00;99.90
58554;DHT22;48119;53.218;6.576;2024-01-06T07:00:03;6.00;99.90
58554;DHT22;48119;53.218;6.576;2024-01-06T07:02:29;6.00;99.90
58554;DHT22;48119;53.218;6.576;2024-01-06T07:04:55;6.00;99.90
58554;DHT22;48119;53.218;6.576;2024-01-06T07:07:21;6.00;99.90
58554;DHT22;48119;53.218;6.576;2024-01-06T07:09:50;6.00;99.90
58554;DHT22;48119;53.218;6.576;2024-01-06T07:12:15;6.00;99.90
58554;DHT22;48119;53.218;6.576;2024-01-06T07:14:41;5.90;99.90
58554;DHT22;48119;53.218;6.576;2024-01-06T07:17:07;5.90;99.90
58554;DHT22;48119;53.218;6.576;2024-01-06T07:19:35;6.00;99.90
58554;DHT22;48119;53.218;6.576;2024-01-06T07:22:01;6.00;99.90
58554;DHT22;48119;53.218;6.576;2024-01-06T07:24:26;6.00;99.90
58554;DHT22;48119;53.218;6.576;2024-01-06T07:26:52;6.00;99.90
58554;DHT22;48119;53.218;6.576;2024-01-06T07:29:18;6.00;99.90
58554;DHT22;48119;53.218;6.576;2024-01-06T07:31:44;6.00;99.90
58554;DHT22;48119;53.218;6.576;2024-01-06T07:34:10;6.00;99.90
58554;DHT22;48119;53.218;6.576;2024-01-06T07:36:36;6.00;99.90
58554;DHT22;48119;53.218;6.576;2024-01-06T07:39:04;6.00;99.90
58554;DHT22;48119;53.218;6.576;2024-01-06T07:41:31;6.00;99.90
58554;DHT22;48119;53.218;6.576;2024-01-06T07:43:57;6.10;99.90
58554;DHT22;48119;53.218;6.576;2024-01-06T07:46:24;6.00;99.90
58554;DHT22;48119;53.218;6.576;2024-01-06T07:48:49;6.00;99.90
58554;DHT22;48119;53.218;6.576;2024-01-06T07:51:15;6.00;99.90
58554;DHT22;48119;53.218;6.576;2024-01-06T07:53:41;6.00;99.90
58554;DHT22;48119;53.218;6.576;2024-01-06T07:56:08;6.00;99.90
58554;DHT22;48119;53.218;6.576;2024-01-06T07:58:34;6.00;99.90
58554;DHT22;48119;53.218;6.576;2024-01-06T08:01:00;6.00;99.90
58554;DHT22;48119;53.218;6.576;2024-01-06T08:03:27;6.00;99.90
58554;DHT22;48119;53.218;6.576;2024-01-06T08:05:52;6.00;99.90
58554;DHT22;48119;53.218;6.576;2024-01-06T08:08:18;6.00;99.90
58554;DHT22;48119;53.218;6.576;2024-01-06T08:10:44;6.00;99.90
58554;DHT22;48119;53.218;6.576;2024-01-06T08:13:10;6.00;99.90
58554;DHT22;48119;53.218;6.576;2024-01-06T08:15:36;6.00;99.90
58554;DHT22;48119;53.218;6.576;2024-01-06T08:18:02;6.00;99.90
58554;DHT22;48119;53.218;6.576;2024-01-06T08:20:27;6.00;99.90
58554;DHT22;48119;53.218;6.576;2024-01-06T08:22:53;5.90;99.90
58554;DHT22;48119;53.218;6.576;2024-01-06T08:25:20;6.00;99.90
58554;DHT22;48119;53.218;6.576;2024-01-06T08:27:46;6.00;99.90
58554;DHT22;48119;53.218;6.576;2024-01-06T08:30:12;6.00;99.90
58554;DHT22;48119;53.218;6.576;2024-01-06T08:32:38;6.00;99.90
58554;DHT22;48119;53.218;6.576;2024-01-06T08:35:04;6.00;99.90
58554;DHT22;48119;53.218;6.576;2024-01-06T08:37:30;6.00;99.90
58554;DHT22;48119;53.218;6.576;2024-01-06T08:39:56;6.00;99.90
58554;DHT22;48119;53.218;6.576;2024-01-06T08:42:21;6.00;99.90
58554;DHT22;48119;53.218;6.576;2024-01-06T08:44:47;6.00;99.90
58554;DHT22;48119;53.218;6.576;2024-01-06T08:47:13;6.00;99.90
58554;DHT22;48119;53.218;6.576;2024-01-06T08:49:39;6.00;99.90
58554;DHT22;48119;53.218;6.576;2024-01-06T08:52:05;6.00;99.90
58554;DHT22;48119;53.218;6.576;2024-01-06T08:54:31;6.00;99.90
58554;DHT22;48119;53.218;6.576;2024-01-06T08:56:57;6.00;99.90
58554;DHT22;48119;53.218;6.576;2024-01-06T08:59:23;6.00;99.90
58554;DHT22;48119;53.218;6.576;2024-01-06T09:01:49;6.00;99.90
58554;DHT22;48119;53.218;6.576;2024-01-06T09:04:14;6.00;99.90
58554;DHT22;48119;53.218;6.576;2024-01-06T09:06:40;6.00;99.90
58554;DHT22;48119;53.218;6.576;2024-01-06T09:09:10;6.00;99.90
58554;DHT22;48119;53.218;6.576;2024-01-06T09:11:36;6.00;99.90
58554;DHT22;48119;53.218;6.576;2024-01-06T09:14:02;6.10;99.90
58554;DHT22;48119;53.218;6.576;2024-01-06T09:16:28;6.10;99.90
58554;DHT22;48119;53.218;6.576;2024-01-06T09:18:53;6.10;99.90
58554;DHT22;48119;53.218;6.576;2024-01-06T09:21:19;6.10;99.90
58554;DHT22;48119;53.218;6.576;2024-01-06T09:23:45;6.10;99.90
58554;DHT22;48119;53.218;6.576;2024-01-06T09:26:11;6.00;99.90
58554;DHT22;48119;53.218;6.576;2024-01-06T09:28:36;6.10;99.90
58554;DHT22;48119;53.218;6.576;2024-01-06T09:31:02;6.10;99.90
58554;DHT22;48119;53.218;6.576;2024-01-06T09:33:30;6.10;99.90
58554;DHT22;48119;53.218;6.576;2024-01-06T09:35:57;6.10;99.90
58554;DHT22;48119;53.218;6.576;2024-01-06T09:38:23;6.10;99.90
58554;DHT22;48119;53.218;6.576;2024-01-06T09:40:49;6.10;99.90
58554;DHT22;48119;53.218;6.576;2024-01-06T09:43:15;6.10;99.90
58554;DHT22;48119;53.218;6.576;2024-01-06T09:45:52;6.10;99.90
58554;DHT22;48119;53.218;6.576;2024-01-06T09:48:20;6.10;99.90
58554;DHT22;48119;53.218;6.576;2024-01-06T09:50:47;6.10;99.90
58554;DHT22;48119;53.218;6.576;2024-01-06T09:53:14;6.10;99.90
58554;DHT22;48119;53.218;6.576;2024-01-06T09:55:40;6.10;99.90
58554;DHT22;48119;53.218;6.576;2024-01-06T09:58:07;6.20;99.90
58554;DHT22;48119;53.218;6.576;2024-01-06T10:00:34;6.10;99.90
58554;DHT22;48119;53.218;6.576;2024-01-06T10:02:59;6.10;99.90
58554;DHT22;48119;53.218;6.576;2024-01-06T10:05:25;6.10;99.90
58554;DHT22;48119;53.218;6.576;2024-01-06T10:07:52;6.20;99.90
58554;DHT22;48119;53.218;6.576;2024-01-06T10:10:17;6.20;99.90
58554;DHT22;48119;53.218;6.576;2024-01-06T10:12:44;6.10;99.90
58554;DHT22;48119;53.218;6.576;2024-01-06T10:15:11;6.10;99.90
58554;DHT22;48119;53.218;6.576;2024-01-06T10:17:41;6.10;99.90
58554;DHT22;48119;53.218;6.576;2024-01-06T10:20:09;6.10;99.90
58554;DHT22;48119;53.218;6.576;2024-01-06T10:22:40;6.00;99.90
58554;DHT22;48119;53.218;6.576;2024-01-06T10:25:07;6.00;99.90
58554;DHT22;48119;53.218;6.576;2024-01-06T10:27:43;6.00;99.90
58554;DHT22;48119;53.218;6.576;2024-01-06T10:30:10;6.00;99.90
58554;DHT22;48119;53.218;6.576;2024-01-06T10:32:36;6.00;99.90
58554;DHT22;48119;53.218;6.576;2024-01-06T10:35:03;6.00;99.90
58554;DHT22;48119;53.218;6.576;2024-01-06T10:37:30;6.00;99.90
58554;DHT22;48119;53.218;6.576;2024-01-06T10:40:12;5.90;99.90
58554;DHT22;48119;53.218;6.576;2024-01-06T10:42:39;5.90;99.90
58554;DHT22;48119;53.218;6.576;2024-01-06T10:45:07;5.90;99.90
58554;DHT22;48119;53.218;6.576;2024-01-06T10:47:35;5.90;99.90
58554;DHT22;48119;53.218;6.576;2024-01-06T10:50:01;5.90;99.90
58554;DHT22;48119;53.218;6.576;2024-01-06T10:52:27;5.90;99.90
58554;DHT22;48119;53.218;6.576;2024-01-06T10:54:58;5.90;99.90
58554;DHT22;48119;53.218;6.576;2024-01-06T10:57:24;5.90;99.90
58554;DHT22;48119;53.218;6.576;2024-01-06T10:59:51;5.90;99.90
58554;DHT22;48119;53.218;6.576;2024-01-06T11:02:17;5.80;99.90
58554;DHT22;48119;53.218;6.576;2024-01-06T11:04:47;5.80;99.90
58554;DHT22;48119;53.218;6.576;2024-01-06T11:07:17;5.90;99.90
58554;DHT22;48119;53.218;6.576;2024-01-06T11:09:57;5.80;99.90
58554;DHT22;48119;53.218;6.576;2024-01-06T11:12:24;5.90;99.90
58554;DHT22;48119;53.218;6.576;2024-01-06T11:14:52;5.90;99.90
58554;DHT22;48119;53.218;6.576;2024-01-06T11:20:14;5.90;99.90
58554;DHT22;48119;53.218;6.576;2024-01-06T11:22:40;5.90;99.90
58554;DHT22;48119;53.218;6.576;2024-01-06T11:25:08;5.80;99.90
58554;DHT22;48119;53.218;6.576;2024-01-06T11:27:38;5.80;99.90
58554;DHT22;48119;53.218;6.576;2024-01-06T11:30:05;5.80;99.90
58554;DHT22;48119;53.218;6.576;2024-01-06T11:32:36;5.90;99.90
58554;DHT22;48119;53.218;6.576;2024-01-06T11:35:16;5.90;99.90
58554;DHT22;48119;53.218;6.576;2024-01-06T11:40:21;5.90;99.90
58554;DHT22;48119;53.218;6.576;2024-01-06T11:43:10;5.90;99.90
58554;DHT22;48119;53.218;6.576;2024-01-06T11:45:41;6.00;99.90
58554;DHT22;48119;53.218;6.576;2024-01-06T11:48:09;5.90;99.90
58554;DHT22;48119;53.218;6.576;2024-01-06T11:50:37;5.90;99.90
58554;DHT22;48119;53.218;6.576;2024-01-06T11:53:07;5.90;99.90
58554;DHT22;48119;53.218;6.576;2024-01-06T11:55:35;5.90;99.90
58554;DHT22;48119;53.218;6.576;2024-01-06T11:58:02;5.90;99.90
58554;DHT22;48119;53.218;6.576;2024-01-06T12:00:29;5.90;99.90
58554;DHT22;48119;53.218;6.576;2024-01-06T12:02:58;5.90;99.90
58554;DHT22;48119;53.218;6.576;2024-01-06T12:05:25;5.90;99.90
58554;DHT22;48119;53.218;6.576;2024-01-06T12:07:59;6.00;99.90
58554;DHT22;48119;53.218;6.576;2024-01-06T12:10:27;5.90;99.90
58554;DHT22;48119;53.218;6.576;2024-01-06T12:15:25;5.90;99.90
58554;DHT22;48119;53.218;6.576;2024-01-06T12:17:51;5.90;99.90
58554;DHT22;48119;53.218;6.576;2024-01-06T12:20:17;5.90;99.90
58554;DHT22;48119;53.218;6.576;2024-01-06T12:22:46;5.90;99.90
58554;DHT22;48119;53.218;6.576;2024-01-06T12:25:12;5.80;99.90
58554;DHT22;48119;53.218;6.576;2024-01-06T12:27:44;5.80;99.90
58554;DHT22;48119;53.218;6.576;2024-01-06T12:30:18;5.80;99.90
58554;DHT22;48119;53.218;6.576;2024-01-06T12:32:48;5.80;99.90
58554;DHT22;48119;53.218;6.576;2024-01-06T12:35:15;5.80;99.90
58554;DHT22;48119;53.218;6.576;2024-01-06T12:37:42;5.80;99.90
58554;DHT22;48119;53.218;6.576;2024-01-06T12:40:15;5.80;99.90
58554;DHT22;48119;53.218;6.576;2024-01-06T12:42:43;5.70;99.90
58554;DHT22;48119;53.218;6.576;2024-01-06T12:45:09;5.80;99.90
58554;DHT22;48119;53.218;6.576;2024-01-06T12:47:35;5.80;99.90
58554;DHT22;48119;53.218;6.576;2024-01-06T12:50:02;5.80;99.90
58554;DHT22;48119;53.218;6.576;2024-01-06T12:52:30;5.80;99.90
58554;DHT22;48119;53.218;6.576;2024-01-06T12:54:55;5.80;99.90
58554;DHT22;48119;53.218;6.576;2024-01-06T12:57:21;5.80;99.90
58554;DHT22;48119;53.218;6.576;2024-01-06T12:59:47;5.80;99.90
58554;DHT22;48119;53.218;6.576;2024-01-06T13:02:13;5.80;99.90
58554;DHT22;48119;53.218;6.576;2024-01-06T13:04:39;5.80;99.90
58554;DHT22;48119;53.218;6.576;2024-01-06T13:07:05;5.80;99.90
58554;DHT22;48119;53.218;6.576;2024-01-06T13:09:31;5.80;99.90
58554;DHT22;48119;53.218;6.576;2024-01-06T13:11:57;5.80;99.90
58554;DHT22;48119;53.218;6.576;2024-01-06T13:14:26;5.80;99.90
58554;DHT22;48119;53.218;6.576;2024-01-06T13:16:52;5.80;99.90
58554;DHT22;48119;53.218;6.576;2024-01-06T13:19:18;5.80;99.90
58554;DHT22;48119;53.218;6.576;2024-01-06T13:21:45;5.80;99.90
58554;DHT22;48119;53.218;6.576;2024-01-06T13:24:11;5.90;99.90
58554;DHT22;48119;53.218;6.576;2024-01-06T13:26:37;5.80;99.90
58554;DHT22;48119;53.218;6.576;2024-01-06T13:29:03;5.80;99.90
58554;DHT22;48119;53.218;6.576;2024-01-06T13:31:29;5.70;99.90
58554;DHT22;48119;53.218;6.576;2024-01-06T13:33:56;5.80;99.90
58554;DHT22;48119;53.218;6.576;2024-01-06T13:36:22;5.80;99.90
58554;DHT22;48119;53.218;6.576;2024-01-06T13:38:48;5.90;99.90
58554;DHT22;48119;53.218;6.576;2024-01-06T13:41:15;5.80;99.90
58554;DHT22;48119;53.218;6.576;2024-01-06T13:43:41;5.80;99.90
58554;DHT22;48119;53.218;6.576;2024-01-06T13:46:06;5.80;99.90
58554;DHT22;48119;53.218;6.576;2024-01-06T13:48:33;5.80;99.90
58554;DHT22;48119;53.218;6.576;2024-01-06T13:50:59;5.80;99.90
58554;DHT22;48119;53.218;6.576;2024-01-06T13:53:25;5.80;99.90
58554;DHT22;48119;53.218;6.576;2024-01-06T13:55:50;5.70;99.90
58554;DHT22;48119;53.218;6.576;2024-01-06T13:58:17;5.70;99.90
58554;DHT22;48119;53.218;6.576;2024-01-06T14:00:43;5.70;99.90
58554;DHT22;48119;53.218;6.576;2024-01-06T14:03:09;5.60;99.90
58554;DHT22;48119;53.218;6.576;2024-01-06T14:05:36;5.60;99.90
58554;DHT22;48119;53.218;6.576;2024-01-06T14:08:03;5.60;99.90
58554;DHT22;48119;53.218;6.576;2024-01-06T14:10:29;5.60;99.90
58554;DHT22;48119;53.218;6.576;2024-01-06T14:12:57;5.60;99.90
58554;DHT22;48119;53.218;6.576;2024-01-06T14:15:23;5.50;99.90
58554;DHT22;48119;53.218;6.576;2024-01-06T14:17:49;5.50;99.90
58554;DHT22;48119;53.218;6.576;2024-01-06T14:20:18;5.50;99.90
58554;DHT22;48119;53.218;6.576;2024-01-06T14:22:45;5.50;99.90
58554;DHT22;48119;53.218;6.576;2024-01-06T14:25:12;5.50;99.90
58554;DHT22;48119;53.218;6.576;2024-01-06T14:27:38;5.40;99.90
58554;DHT22;48119;53.218;6.576;2024-01-06T14:30:04;5.40;99.90
58554;DHT22;48119;53.218;6.576;2024-01-06T14:32:32;5.50;99.90
58554;DHT22;48119;53.218;6.576;2024-01-06T14:34:58;5.50;99.90
58554;DHT22;48119;53.218;6.576;2024-01-06T14:37:24;5.40;99.90
58554;DHT22;48119;53.218;6.576;2024-01-06T14:39:50;5.50;99.90
58554;DHT22;48119;53.218;6.576;2024-01-06T14:42:16;5.50;99.90
58554;DHT22;48119;53.218;6.576;2024-01-06T14:44:44;5.50;99.90
58554;DHT22;48119;53.218;6.576;2024-01-06T14:47:10;5.50;99.90
58554;DHT22;48119;53.218;6.576;2024-01-06T14:49:38;5.50;99.90
58554;DHT22;48119;53.218;6.576;2024-01-06T14:52:04;5.50;99.90
58554;DHT22;48119;53.218;6.576;2024-01-06T14:54:30;5.50;99.90
58554;DHT22;48119;53.218;6.576;2024-01-06T14:56:57;5.50;99.90
58554;DHT22;48119;53.218;6.576;2024-01-06T14:59:24;5.40;99.90
58554;DHT22;48119;53.218;6.576;2024-01-06T15:01:50;5.40;99.90
58554;DHT22;48119;53.218;6.576;2024-01-06T15:04:15;5.40;99.90
58554;DHT22;48119;53.218;6.576;2024-01-06T15:06:44;5.40;99.90
58554;DHT22;48119;53.218;6.576;2024-01-06T15:09:09;5.50;99.90
58554;DHT22;48119;53.218;6.576;2024-01-06T15:11:35;5.50;99.90
58554;DHT22;48119;53.218;6.576;2024-01-06T15:14:01;5.50;99.90
58554;DHT22;48119;53.218;6.576;2024-01-06T15:16:33;5.50;99.90
58554;DHT22;48119;53.218;6.576;2024-01-06T15:18:58;5.40;99.90
58554;DHT22;48119;53.218;6.576;2024-01-06T15:21:25;5.40;99.90
58554;DHT22;48119;53.218;6.576;2024-01-06T15:23:53;5.40;99.90
58554;DHT22;48119;53.218;6.576;2024-01-06T15:26:24;5.30;99.90
58554;DHT22;48119;53.218;6.576;2024-01-06T15:28:50;5.30;99.90
58554;DHT22;48119;53.218;6.576;2024-01-06T15:31:16;5.40;99.90
58554;DHT22;48119;53.218;6.576;2024-01-06T15:33:42;5.30;99.90
58554;DHT22;48119;53.218;6.576;2024-01-06T15:36:11;5.30;99.90
58554;DHT22;48119;53.218;6.576;2024-01-06T15:38:39;5.30;99.90
58554;DHT22;48119;53.218;6.576;2024-01-06T15:41:06;5.30;99.90
58554;DHT22;48119;53.218;6.576;2024-01-06T15:43:32;5.30;99.90
58554;DHT22;48119;53.218;6.576;2024-01-06T15:45:58;5.30;99.90
58554;DHT22;48119;53.218;6.576;2024-01-06T15:48:23;5.30;99.90